createdAt,value
2022-08-12T00:03:02.159Z,101045.53
2022-08-12T00:08:16.142Z,101162.81
2022-08-12T00:13:26.785Z,101172.09
2022-08-12T00:18:37.502Z,101069.53
2022-08-12T00:23:49.615Z,101175.22
2022-08-12T00:29:01.014Z,101159.69
2022-08-12T00:34:11.802Z,101185.19
2022-08-12T00:39:24.313Z,101070.28
2022-08-12T00:44:20.519Z,101176.97
2022-08-12T00:49:16.249Z,101194.69
2022-08-12T00:54:11.233Z,101166.97
2022-08-12T00:59:05.350Z,101117.31
2022-08-12T01:04:18.751Z,101132.31
2022-08-12T01:09:33.908Z,101156.69
2022-08-12T01:14:30.194Z,101133.72
2022-08-12T01:19:26.258Z,101169.53
2022-08-12T01:24:48.795Z,101192.47
2022-08-12T01:29:45.066Z,101058.47
2022-08-12T01:34:40.669Z,101184.41
2022-08-12T01:40:35.318Z,101046.25
2022-08-12T01:44:55.544Z,101189.03
2022-08-12T01:50:06.622Z,101061.56
2022-08-12T01:55:02.306Z,101145.22
2022-08-12T02:00:05.232Z,101103.44
2022-08-12T02:05:33.190Z,101129.81
2022-08-12T02:10:56.631Z,101166.47
2022-08-12T02:15:57.655Z,101157.25
2022-08-12T02:20:59.874Z,101170.44
2022-08-12T02:25:57.274Z,101103.97
2022-08-12T02:30:51.183Z,101053.59
2022-08-12T02:35:45.542Z,101136.78
2022-08-12T02:40:41.365Z,101165.47
2022-08-12T02:45:54.251Z,101006.22
2022-08-12T02:50:54.341Z,101130.69
2022-08-12T02:55:48.168Z,101015.50
2022-08-12T03:00:43.953Z,101090.56
2022-08-12T03:05:44.730Z,101168.63
2022-08-12T03:10:44.127Z,101080.81
2022-08-12T03:15:45.915Z,101034.88
2022-08-12T03:20:41.110Z,101033.41
2022-08-12T03:25:48.264Z,101123.56
2022-08-12T03:30:52.424Z,101086.06
2022-08-12T03:35:50.909Z,101175.88
2022-08-12T03:41:15.000Z,101153.13
2022-08-12T03:46:31.561Z,101104.97
2022-08-12T03:51:42.151Z,101173.75
2022-08-12T03:57:01.542Z,101138.06
2022-08-12T04:01:58.629Z,101093.28
2022-08-12T04:06:52.591Z,101106.66
2022-08-12T04:12:04.450Z,101137.31
2022-08-12T04:16:59.932Z,101092.69
2022-08-12T04:22:01.367Z,101163.78
2022-08-12T04:26:56.697Z,101012.09
2022-08-12T04:31:50.763Z,101025.94
2022-08-12T04:36:46.006Z,101149.31
2022-08-12T04:41:56.207Z,101163.34
2022-08-12T04:46:52.243Z,101157.66
2022-08-12T04:51:56.781Z,101040.72
2022-08-12T04:57:04.366Z,101027.25
2022-08-12T05:02:03.546Z,101159.28
2022-08-12T05:07:09.223Z,101097.94
2022-08-12T05:12:03.619Z,101176.19
2022-08-12T05:16:57.108Z,101151.59
2022-08-12T05:21:53.154Z,101148.38
2022-08-12T05:26:48.535Z,101164.69
2022-08-12T05:31:48.211Z,101167.75
2022-08-12T05:36:44.019Z,101156.25
2022-08-12T05:41:38.110Z,101188.88
2022-08-12T05:46:34.359Z,101111.19
2022-08-12T05:51:40.391Z,101148.47
2022-08-12T05:56:37.162Z,101193.38
2022-08-12T06:02:09.458Z,101192.59
2022-08-12T06:06:51.433Z,101076.00
2022-08-12T06:12:04.144Z,101065.91
2022-08-12T06:17:03.749Z,101152.50
2022-08-12T06:21:57.256Z,101066.41
2022-08-12T06:26:51.021Z,101177.25
2022-08-12T06:31:46.406Z,101132.19
2022-08-12T06:36:43.310Z,101024.03
2022-08-12T06:42:22.701Z,101119.38
2022-08-12T06:47:08.236Z,101184.88
2022-08-12T06:52:04.531Z,101166.03
2022-08-12T06:57:05.196Z,101093.88
2022-08-12T07:02:13.948Z,101146.72
2022-08-12T07:07:12.796Z,101103.28
2022-08-12T07:12:06.480Z,101072.53
2022-08-12T07:17:02.427Z,101169.34
2022-08-12T07:22:02.283Z,101177.84
2022-08-12T07:26:58.203Z,101061.19
2022-08-12T07:31:51.747Z,101087.38
2022-08-12T07:36:45.906Z,101111.81
2022-08-12T07:41:41.421Z,101021.78
2022-08-12T07:46:39.013Z,101064.31
2022-08-12T07:51:43.998Z,101165.53
2022-08-12T07:56:38.455Z,101053.66
2022-08-12T08:01:35.334Z,101111.63
2022-08-12T08:06:33.184Z,101157.63
2022-08-12T08:11:53.720Z,101162.13
2022-08-12T08:17:10.419Z,101158.22
2022-08-12T08:22:06.561Z,101098.84
2022-08-12T08:27:01.262Z,101040.69
2022-08-12T08:31:58.535Z,101045.19
2022-08-12T08:36:52.180Z,101119.53
2022-08-12T08:42:15.319Z,101105.69
2022-08-12T08:47:14.345Z,101031.72
2022-08-12T08:52:10.172Z,101137.31
2022-08-12T08:57:08.329Z,101134.72
2022-08-12T09:02:02.583Z,101033.56
2022-08-12T09:07:00.387Z,101118.66
2022-08-12T09:12:32.197Z,101078.09
2022-08-12T09:17:26.978Z,101110.84
2022-08-12T09:22:35.979Z,101010.47
2022-08-12T09:28:24.901Z,101052.31
2022-08-12T09:33:03.971Z,101040.66
2022-08-12T09:38:01.392Z,100980.72
2022-08-12T09:43:18.729Z,101024.88
2022-08-12T09:48:20.278Z,101073.97
2022-08-12T09:53:29.105Z,101060.56
2022-08-12T09:58:57.280Z,101065.03
2022-08-12T10:04:03.681Z,100991.63
2022-08-12T10:08:58.446Z,100985.47
2022-08-12T10:13:56.994Z,100966.16
2022-08-12T10:18:53.970Z,100913.50
2022-08-12T10:23:55.138Z,101033.84
2022-08-12T10:30:01.921Z,101029.78
2022-08-12T10:34:26.528Z,100924.53
2022-08-12T10:40:01.358Z,100981.81
2022-08-12T10:44:38.836Z,100976.00
2022-08-12T10:50:03.592Z,101001.06
2022-08-12T10:54:51.086Z,100952.03
2022-08-12T11:00:31.927Z,100997.31
2022-08-12T11:07:06.569Z,100981.34
2022-08-12T11:10:14.551Z,100933.31
2022-08-12T11:15:18.873Z,100931.69
2022-08-12T11:20:14.941Z,100968.63
2022-08-12T11:25:11.490Z,100903.00
2022-08-12T11:30:11.749Z,100930.59
2022-08-12T11:35:27.376Z,100949.91
2022-08-12T11:40:24.742Z,100890.00
2022-08-12T11:45:20.809Z,100888.91
2022-08-12T11:50:19.193Z,100962.66
2022-08-12T11:55:14.802Z,100900.13
2022-08-12T12:05:28.582Z,100908.75
2022-08-12T12:10:34.873Z,100884.47
2022-08-12T12:15:41.057Z,100873.97
2022-08-12T12:20:36.920Z,100934.72
2022-08-12T12:25:59.353Z,100882.78
2022-08-12T12:30:54.942Z,100826.06
2022-08-12T12:36:19.689Z,100914.31
2022-08-12T12:41:16.406Z,100910.47
2022-08-12T12:46:10.937Z,100898.75
2022-08-12T12:57:17.738Z,100877.78
2022-08-12T13:02:42.249Z,100863.97
2022-08-12T13:07:54.454Z,100816.88
2022-08-12T13:12:50.877Z,100857.75
2022-08-12T13:18:02.334Z,100785.25
2022-08-12T13:22:58.826Z,100862.72
2022-08-12T13:27:56.001Z,100865.59
2022-08-12T13:32:56.722Z,100765.63
2022-08-12T13:37:54.818Z,100855.63
2022-08-12T13:42:57.871Z,100794.97
2022-08-12T13:47:58.110Z,100797.25
2022-08-12T13:52:51.861Z,100835.06
2022-08-12T13:57:47.180Z,100843.88
2022-08-12T14:02:42.513Z,100781.19
2022-08-12T14:07:53.431Z,100793.91
2022-08-12T14:12:54.094Z,100814.13
2022-08-12T14:17:47.642Z,100781.97
2022-08-12T14:22:56.796Z,100813.75
2022-08-12T14:28:03.380Z,100750.38
2022-08-12T14:33:03.420Z,100829.72
2022-08-12T14:38:02.705Z,100731.63
2022-08-12T14:43:06.164Z,100800.31
2022-08-12T14:47:59.920Z,100808.78
2022-08-12T14:58:11.229Z,100812.56
2022-08-12T15:03:06.316Z,100814.00
2022-08-12T15:08:05.057Z,100822.75
2022-08-12T15:13:00.270Z,100799.56
2022-08-12T15:18:08.748Z,100773.41
2022-08-12T15:23:18.031Z,100813.03
2022-08-12T15:28:23.821Z,100794.38
2022-08-12T15:33:45.183Z,100694.84
2022-08-12T15:38:40.015Z,100680.69
2022-08-12T15:44:16.878Z,100704.38
2022-08-12T15:48:53.328Z,100785.66
2022-08-12T15:54:04.910Z,100726.47
2022-08-12T15:59:20.379Z,100781.09
2022-08-12T16:04:33.942Z,100717.78
2022-08-12T16:09:56.205Z,100679.25
2022-08-12T16:14:47.463Z,100751.38
2022-08-12T16:20:03.600Z,100638.41
2022-08-12T16:24:58.141Z,100684.09
2022-08-12T16:29:57.679Z,100724.25
2022-08-12T16:34:56.536Z,100693.53
2022-08-12T16:40:01.819Z,100707.59
2022-08-12T16:45:03.598Z,100769.06
2022-08-12T16:49:59.062Z,100701.41
2022-08-12T16:54:53.223Z,100710.78
2022-08-12T16:59:54.122Z,100642.16
2022-08-12T17:04:52.740Z,100684.25
2022-08-12T17:09:50.047Z,100766.84
2022-08-12T17:14:43.745Z,100739.81
2022-08-12T17:20:35.157Z,100651.00
2022-08-12T17:25:03.763Z,100777.94
2022-08-12T17:30:06.284Z,100787.63
2022-08-12T17:35:18.631Z,100681.78
2022-08-12T17:40:20.965Z,100793.03
2022-08-12T17:45:29.728Z,100752.34
2022-08-12T17:50:25.846Z,100731.75
2022-08-12T17:55:40.751Z,100676.91
2022-08-12T18:00:41.970Z,100795.53
2022-08-12T18:05:55.301Z,100674.16
2022-08-12T18:12:03.095Z,100786.84
2022-08-12T18:16:31.234Z,100701.63
2022-08-12T18:21:25.815Z,100821.16
2022-08-12T18:26:23.875Z,100826.84
2022-08-12T18:31:23.026Z,100797.91
2022-08-12T18:36:22.707Z,100696.38
2022-08-12T18:41:33.742Z,100798.25
2022-08-12T18:47:02.446Z,100772.63
2022-08-12T18:52:04.279Z,100771.09
2022-08-12T18:57:00.836Z,100854.03
2022-08-12T19:02:19.784Z,100854.75
2022-08-12T19:07:19.766Z,100773.44
2022-08-12T19:12:30.983Z,100825.00
2022-08-12T19:17:56.830Z,100827.13
2022-08-12T19:22:42.330Z,100797.44
2022-08-12T19:27:55.719Z,100737.81
2022-08-12T19:33:00.253Z,100831.66
2022-08-12T19:38:03.869Z,100836.44
2022-08-12T19:43:01.511Z,100844.69
2022-08-12T19:47:59.949Z,100767.34
2022-08-12T19:52:54.956Z,100742.75
2022-08-12T19:58:02.376Z,100823.03
2022-08-12T20:03:00.792Z,100754.31
2022-08-12T20:07:59.526Z,100738.72
2022-08-12T20:13:19.183Z,100842.44
2022-08-12T20:18:43.690Z,100858.94
2022-08-12T20:23:50.719Z,100820.16
2022-08-12T20:28:49.905Z,100880.16
2022-08-12T20:33:56.437Z,100831.66
2022-08-12T20:38:51.962Z,100844.84
2022-08-12T20:43:53.346Z,100763.47
2022-08-12T20:48:55.085Z,100820.00
2022-08-12T20:53:58.851Z,100830.03
2022-08-12T20:58:56.701Z,100734.91
2022-08-12T21:04:09.535Z,100821.22
2022-08-12T21:09:05.364Z,100867.25
2022-08-12T21:14:03.439Z,100814.19
2022-08-12T21:18:57.547Z,100697.59
2022-08-12T21:23:56.260Z,100816.63
2022-08-12T21:28:58.217Z,100837.75
2022-08-12T21:34:07.292Z,100833.84
2022-08-12T21:39:19.181Z,100838.53
2022-08-12T21:44:23.916Z,100877.38
2022-08-12T21:49:54.119Z,100710.72
2022-08-12T21:54:50.531Z,100730.09
2022-08-12T21:59:49.954Z,100856.38
2022-08-12T22:05:06.495Z,100830.78
2022-08-12T22:10:01.392Z,100849.72
2022-08-12T22:14:56.519Z,100863.94
2022-08-12T22:19:54.497Z,100829.50
2022-08-12T22:24:50.628Z,100821.88
2022-08-12T22:30:16.163Z,100860.31
2022-08-12T22:35:56.341Z,100738.06
2022-08-12T22:40:49.759Z,100859.69
2022-08-12T22:46:01.191Z,100790.16
2022-08-12T22:50:59.401Z,100817.00
2022-08-12T22:56:06.117Z,100684.47
2022-08-12T23:01:02.574Z,100780.31
2022-08-12T23:06:10.195Z,100827.81
2022-08-12T23:11:08.481Z,100736.66
2022-08-12T23:16:04.210Z,100726.13
2022-08-12T23:20:59.224Z,100841.50
2022-08-12T23:25:55.160Z,100764.75
2022-08-12T23:30:49.155Z,100845.97
2022-08-12T23:35:45.712Z,100828.44
2022-08-12T23:40:48.577Z,100836.88
2022-08-12T23:46:00.544Z,100810.47
2022-08-12T23:50:58.110Z,100842.63
2022-08-12T23:55:57.071Z,100758.75
